Time;durP1;ratioP1;P1;durP2;ratioP2;P2;SDS_P1;SDS_P2;PMS_P1;PMS_P2;Temp;Humidity;BMP_temperature;BMP_pressure;BME280_temperature;BME280_humidity;BME280_pressure;Samples;Min_cycle;Max_cycle;Signal;HPM_P1;HPM_P2
2021/10/21 00:02:07;;;;;;;15.93;13.67;;;;;;;8.00;67.17;102067.47;6120802;23;20157;-66
2021/10/21 00:04:33;;;;;;;16.70;13.87;;;;;;;7.95;67.57;102063.06;6121132;23;20156;-66
2021/10/21 00:06:58;;;;;;;18.20;13.53;;;;;;;8.10;67.81;102089.63;6122428;23;20238;-66
2021/10/21 00:09:24;;;;;;;17.43;14.30;;;;;;;8.07;67.63;102087.66;6122219;23;20157;-66
2021/10/21 00:11:50;;;;;;;20.40;14.83;;;;;;;7.88;67.30;102074.03;6121016;23;20158;-65
2021/10/21 00:14:15;;;;;;;20.67;17.67;;;;;;;7.73;67.66;102069.53;6121668;23;20655;-66
2021/10/21 00:16:41;;;;;;;21.13;17.70;;;;;;;7.85;67.98;102088.59;6121953;23;20294;-66
2021/10/21 00:19:07;;;;;;;22.03;17.60;;;;;;;7.72;69.02;102073.50;6122595;23;20165;-65
2021/10/21 00:21:33;;;;;;;22.97;17.50;;;;;;;7.75;69.38;102082.97;6121262;23;20153;-66
2021/10/21 00:23:59;;;;;;;22.07;17.93;;;;;;;7.65;69.52;102058.81;6121346;23;20675;-66
2021/10/21 00:26:24;;;;;;;20.60;17.97;;;;;;;7.84;70.10;102084.25;6122088;23;20237;-66
2021/10/21 00:28:49;;;;;;;19.70;17.37;;;;;;;7.83;69.50;102085.44;6121960;23;20241;-66
2021/10/21 00:31:15;;;;;;;20.63;17.50;;;;;;;7.81;69.47;102087.78;6121064;23;20204;-66
2021/10/21 00:33:40;;;;;;;20.23;16.63;;;;;;;7.72;69.99;102089.25;6121629;23;20173;-66
2021/10/21 00:36:06;;;;;;;20.93;17.20;;;;;;;7.68;69.62;102066.34;6121765;23;20191;-65
2021/10/21 00:38:31;;;;;;;20.43;17.50;;;;;;;7.35;70.05;102028.53;6119989;23;20173;-66
2021/10/21 00:40:57;;;;;;;23.77;17.40;;;;;;;7.42;69.68;102022.28;6119196;23;20162;-66
2021/10/21 00:43:23;;;;;;;23.60;17.13;;;;;;;7.76;69.86;102066.03;6121413;23;20212;-65
2021/10/21 00:45:48;;;;;;;24.17;16.93;;;;;;;7.79;70.37;102073.56;6121909;23;20209;-65
2021/10/21 00:48:14;;;;;;;23.37;17.23;;;;;;;7.76;70.40;102059.72;6119774;23;20598;-66
2021/10/21 00:50:40;;;;;;;21.27;17.17;;;;;;;7.85;70.18;102068.50;6120308;23;20154;-66
2021/10/21 00:53:09;;;;;;;23.70;17.43;;;;;;;7.85;70.30;102051.94;6121411;23;20150;-66
2021/10/21 00:55:35;;;;;;;20.27;16.70;;;;;;;7.81;69.94;102059.38;6121663;23;20160;-65
2021/10/21 00:58:03;;;;;;;18.97;16.53;;;;;;;7.79;70.51;102064.50;6121581;23;20616;-65
2021/10/21 01:00:30;;;;;;;19.33;16.67;;;;;;;7.71;70.89;102057.31;6120570;23;20676;-65
2021/10/21 01:02:55;;;;;;;23.13;16.90;;;;;;;7.60;70.28;102017.78;6121211;23;20153;-66
2021/10/21 01:05:21;;;;;;;23.13;16.33;;;;;;;7.76;70.33;102055.00;6121834;23;20150;-66
2021/10/21 01:07:47;;;;;;;22.30;16.90;;;;;;;7.78;70.32;102051.84;6121988;23;20150;-65
2021/10/21 01:10:14;;;;;;;20.87;16.30;;;;;;;7.76;70.19;102041.22;6120643;23;20236;-66
2021/10/21 01:12:39;;;;;;;21.37;16.57;;;;;;;7.77;70.27;102045.56;6120767;23;20154;-65
2021/10/21 01:15:28;;;;;;;20.60;16.57;;;;;;;7.57;70.85;102015.75;6121467;23;20169;-65
2021/10/21 01:17:55;;;;;;;23.30;16.77;;;;;;;7.82;70.29;102036.13;6121693;23;20237;-66
2021/10/21 01:20:23;;;;;;;24.40;16.63;;;;;;;7.81;69.85;102032.59;6120733;23;20274;-65
2021/10/21 01:22:48;;;;;;;22.67;16.37;;;;;;;7.84;70.14;102034.56;6119521;23;20184;-65
2021/10/21 01:25:16;;;;;;;20.33;15.40;;;;;;;7.61;69.41;101989.81;6121295;23;20154;-65
2021/10/21 01:27:43;;;;;;;20.47;14.93;;;;;;;7.64;69.17;102005.59;6121541;23;20150;-65
2021/10/21 01:30:19;;;;;;;20.83;15.00;;;;;;;7.83;69.60;102034.94;6121113;23;20253;-65
2021/10/21 01:32:45;;;;;;;19.80;15.17;;;;;;;7.84;69.60;102029.06;6120682;23;20321;-65
2021/10/21 01:35:11;;;;;;;29.17;17.00;;;;;;;7.87;69.71;102028.31;6121604;23;20186;-65
2021/10/21 01:37:37;;;;;;;29.67;16.87;;;;;;;7.56;69.64;101976.38;6121039;23;20569;-65
2021/10/21 01:40:03;;;;;;;33.60;16.50;;;;;;;7.84;69.79;102020.00;6120240;23;20155;-66
2021/10/21 01:42:28;;;;;;;30.70;15.67;;;;;;;7.85;69.26;102018.81;6120767;23;20233;-65
2021/10/21 01:44:54;;;;;;;26.67;15.77;;;;;;;7.85;69.30;102022.34;6121404;23;20216;-66
2021/10/21 01:47:19;;;;;;;26.20;15.50;;;;;;;7.75;69.72;102005.72;6119620;23;20159;-65
2021/10/21 01:49:45;;;;;;;19.27;14.27;;;;;;;7.90;69.30;102030.28;6121481;23;20162;-66
2021/10/21 01:52:10;;;;;;;24.53;16.23;;;;;;;7.93;69.43;102032.28;6120413;23;20157;-66
2021/10/21 01:54:35;;;;;;;24.50;15.77;;;;;;;7.73;70.18;102011.59;6121182;23;20153;-65
2021/10/21 01:57:01;;;;;;;22.63;15.83;;;;;;;7.73;70.01;101988.72;6121579;23;20201;-65
2021/10/21 01:59:26;;;;;;;23.50;16.43;;;;;;;7.93;69.83;102015.72;6121394;23;20165;-67
2021/10/21 02:01:52;;;;;;;19.13;14.80;;;;;;;7.93;68.75;102015.72;6120079;23;20229;-65
2021/10/21 02:04:17;;;;;;;21.30;15.70;;;;;;;7.96;68.79;102009.47;6121206;23;20159;-66
2021/10/21 02:06:43;;;;;;;29.20;18.17;;;;;;;7.77;70.21;102008.88;6121215;23;20225;-65
2021/10/21 02:09:08;;;;;;;40.20;18.60;;;;;;;7.52;69.87;101974.72;6121340;23;20160;-66
2021/10/21 02:11:34;;;;;;;80.00;20.87;;;;;;;7.59;70.84;102000.41;6120206;23;20486;-65
2021/10/21 02:13:59;;;;;;;47.40;18.30;;;;;;;7.40;70.65;101977.75;6120354;23;20157;-65
2021/10/21 02:16:25;;;;;;;25.93;16.53;;;;;;;7.59;70.84;102002.41;6121102;23;20177;-65
2021/10/21 02:18:53;;;;;;;21.73;17.33;;;;;;;7.51;70.71;101998.78;6121091;23;20162;-64
2021/10/21 02:21:19;;;;;;;177.33;42.70;;;;;;;6.75;71.10;101872.69;6120177;23;20192;-65
2021/10/21 02:23:44;;;;;;;69.57;29.47;;;;;;;7.28;70.92;101980.78;6121084;23;20154;-64
2021/10/21 02:26:10;;;;;;;63.37;29.07;;;;;;;7.17;70.53;101961.34;6120923;23;20154;-65
2021/10/21 02:28:35;;;;;;;41.47;30.50;;;;;;;7.43;70.62;101993.56;6121035;23;20153;-66
2021/10/21 02:31:01;;;;;;;51.10;32.83;;;;;;;7.18;71.03;101943.63;6118298;23;20202;-65
2021/10/21 02:33:26;;;;;;;178.83;54.50;;;;;;;7.42;70.51;101997.47;6120777;23;20147;-64
2021/10/21 02:35:52;;;;;;;104.23;48.67;;;;;;;7.42;70.84;101987.25;6121056;23;20648;-64
2021/10/21 02:38:18;;;;;;;59.83;39.93;;;;;;;7.16;71.04;101976.31;6120844;23;20157;-65
2021/10/21 02:40:43;;;;;;;58.07;42.90;;;;;;;7.30;70.96;101995.78;6118487;23;20689;-65
2021/10/21 02:43:10;;;;;;;63.83;44.10;;;;;;;7.08;70.25;101947.06;6120693;23;20158;-64
2021/10/21 02:45:36;;;;;;;59.20;45.90;;;;;;;7.23;70.62;101972.84;6121228;23;20234;-65
2021/10/21 02:48:02;;;;;;;55.77;49.67;;;;;;;7.05;70.11;101933.25;6121009;23;20548;-63
2021/10/21 02:50:27;;;;;;;77.87;58.20;;;;;;;7.07;70.04;101925.41;6119977;23;20163;-65
2021/10/21 02:52:53;;;;;;;64.03;50.90;;;;;;;7.27;70.60;101977.22;6120713;23;20161;-65
2021/10/21 02:55:18;;;;;;;70.27;52.70;;;;;;;7.29;70.55;101971.34;6120991;23;20216;-65
2021/10/21 02:57:45;;;;;;;73.60;51.60;;;;;;;7.30;70.24;101962.69;6120870;23;20462;-65
2021/10/21 03:00:11;;;;;;;85.67;53.40;;;;;;;7.21;70.27;101970.47;6121984;23;20154;-65
2021/10/21 03:02:37;;;;;;;67.27;49.03;;;;;;;7.12;69.73;101944.38;6122695;23;20162;-65
2021/10/21 03:05:03;;;;;;;71.50;52.37;;;;;;;7.12;69.69;101958.16;6121533;23;20635;-65
2021/10/21 03:07:29;;;;;;;75.20;50.33;;;;;;;7.19;70.01;101961.00;6123088;23;20149;-65
2021/10/21 03:09:54;;;;;;;60.90;46.50;;;;;;;6.90;69.89;101934.25;6122249;23;20161;-65
2021/10/21 03:12:20;;;;;;;55.80;46.53;;;;;;;7.08;69.68;101957.31;6122230;23;20154;-65
2021/10/21 03:14:45;;;;;;;53.83;43.77;;;;;;;6.96;70.26;101930.00;6122673;23;20154;-65
2021/10/21 03:17:12;;;;;;;58.50;46.83;;;;;;;6.80;69.09;101890.84;6122979;23;20178;-65
2021/10/21 03:19:38;;;;;;;72.10;48.53;;;;;;;7.32;70.57;101965.06;6122993;23;20528;-65
2021/10/21 03:22:03;;;;;;;67.83;48.53;;;;;;;6.92;70.70;101885.09;6121770;23;20172;-65
2021/10/21 03:24:29;;;;;;;72.77;49.77;;;;;;;7.36;70.55;101955.66;6122761;23;20273;-65
2021/10/21 03:26:54;;;;;;;61.37;43.30;;;;;;;7.25;69.92;101949.25;6123016;23;20154;-64
2021/10/21 03:29:20;;;;;;;56.83;39.63;;;;;;;7.22;70.67;101949.22;6123079;23;20238;-62
2021/10/21 03:31:45;;;;;;;54.00;36.10;;;;;;;7.28;70.41;101951.22;6121287;23;20558;-65
2021/10/21 03:34:11;;;;;;;67.27;40.50;;;;;;;7.26;70.27;101945.31;6122978;23;20184;-64
2021/10/21 03:36:36;;;;;;;67.87;32.23;;;;;;;7.20;69.94;101946.84;6122505;23;20728;-65
2021/10/21 03:39:03;;;;;;;86.43;24.37;;;;;;;7.12;71.17;101947.91;6122531;23;20169;-65
2021/10/21 03:41:28;;;;;;;119.27;24.77;;;;;;;6.55;71.23;101878.72;6121912;23;20158;-64
2021/10/21 03:43:53;;;;;;;152.47;22.50;;;;;;;6.92;71.36;101938.22;6122280;23;20229;-62
2021/10/21 03:46:19;;;;;;;106.70;23.17;;;;;;;6.99;71.71;101943.03;6122656;23;20160;-63
2021/10/21 03:48:44;;;;;;;90.43;22.73;;;;;;;6.93;72.79;101945.31;6122327;23;20168;-63
2021/10/21 03:51:11;;;;;;;173.30;27.00;;;;;;;6.97;72.35;101935.13;6121819;23;20157;-63
2021/10/21 03:53:36;;;;;;;252.87;29.73;;;;;;;6.98;72.58;101922.16;6121943;23;20563;-63
2021/10/21 03:56:02;;;;;;;216.27;31.20;;;;;;;6.66;74.11;101860.41;6122016;23;20189;-63
2021/10/21 03:58:27;;;;;;;229.00;29.50;;;;;;;6.94;74.67;101929.59;6122369;23;20229;-62
2021/10/21 04:00:53;;;;;;;140.50;30.30;;;;;;;7.05;74.88;101916.72;6121337;23;20493;-62
2021/10/21 04:03:18;;;;;;;147.93;31.33;;;;;;;6.69;75.61;101846.66;6122157;23;20154;-62
2021/10/21 04:05:44;;;;;;;109.87;27.97;;;;;;;7.13;74.95;101919.16;6122345;23;20285;-62
2021/10/21 04:08:09;;;;;;;46.43;28.63;;;;;;;7.18;74.54;101923.56;6122237;23;20172;-62
2021/10/21 04:10:35;;;;;;;48.90;29.80;;;;;;;6.74;73.73;101840.81;6121038;23;20154;-62
2021/10/21 04:13:00;;;;;;;46.40;28.43;;;;;;;7.19;73.01;101917.69;6119770;23;20244;-62
2021/10/21 04:15:26;;;;;;;45.80;28.77;;;;;;;7.24;73.26;101908.25;6120415;23;20232;-62
2021/10/21 04:17:55;;;;;;;52.97;33.53;;;;;;;7.29;72.65;101903.19;6122302;23;20217;-62
2021/10/21 04:20:21;;;;;;;50.27;30.87;;;;;;;7.26;73.12;101903.97;6121194;23;20161;-64
2021/10/21 04:22:48;;;;;;;49.37;30.77;;;;;;;6.94;72.92;101844.16;6121448;23;20619;-64
2021/10/21 04:25:13;;;;;;;51.37;31.53;;;;;;;7.35;73.73;101898.94;6121867;23;20157;-64
2021/10/21 04:27:39;;;;;;;70.93;31.77;;;;;;;7.39;73.39;101896.19;6121976;23;20479;-62
2021/10/21 04:30:06;;;;;;;68.80;30.43;;;;;;;7.36;73.33;101899.72;6121079;23;20166;-63
2021/10/21 04:32:31;;;;;;;53.37;29.67;;;;;;;7.14;73.32;101859.31;6121167;23;20209;-62
2021/10/21 04:34:58;;;;;;;48.53;30.00;;;;;;;7.43;73.43;101905.31;6120474;23;20609;-63
2021/10/21 04:37:24;;;;;;;44.83;28.87;;;;;;;7.16;72.83;101849.50;6121558;23;20521;-63
2021/10/21 04:39:50;;;;;;;60.40;31.33;;;;;;;7.51;72.63;101895.91;6121296;23;20199;-63
2021/10/21 04:42:15;;;;;;;58.87;32.57;;;;;;;7.61;72.75;101897.97;6121563;23;20165;-63
2021/10/21 04:44:42;;;;;;;80.20;35.43;;;;;;;7.66;73.29;101897.63;6121770;23;20245;-63
2021/10/21 04:47:08;;;;;;;55.87;32.57;;;;;;;7.35;72.88;101841.03;6121796;23;20156;-63
2021/10/21 04:49:34;;;;;;;93.03;35.87;;;;;;;7.26;73.40;101828.72;6121610;23;20602;-63
2021/10/21 04:51:59;;;;;;;102.20;37.13;;;;;;;7.31;74.14;101870.53;6118737;23;20167;-62
2021/10/21 04:54:25;;;;;;;70.23;33.50;;;;;;;7.60;73.80;101893.63;6114402;23;20154;-63
2021/10/21 04:56:50;;;;;;;59.40;29.80;;;;;;;7.36;72.29;101878.44;6114065;23;20475;-63
2021/10/21 04:59:16;;;;;;;41.00;27.80;;;;;;;7.24;71.81;101840.13;6117686;23;20166;-63
2021/10/21 05:01:41;;;;;;;44.70;26.37;;;;;;;6.98;70.95;101880.81;6111825;23;20185;-63
2021/10/21 05:04:06;;;;;;;33.43;26.00;;;;;;;7.06;71.85;101883.28;6118391;23;20157;-63
2021/10/21 05:06:32;;;;;;;37.00;24.67;;;;;;;6.97;71.16;101865.47;6109218;23;20158;-63
2021/10/21 05:08:57;;;;;;;36.97;24.67;;;;;;;7.10;71.06;101875.03;6113637;23;20150;-63
2021/10/21 05:11:23;;;;;;;33.37;24.50;;;;;;;7.04;71.07;101882.88;6107028;23;20168;-64
2021/10/21 05:13:48;;;;;;;37.97;25.67;;;;;;;7.11;70.44;101877.41;6118029;23;20154;-63
2021/10/21 05:16:14;;;;;;;37.43;23.93;;;;;;;7.02;70.59;101863.13;6111335;23;20182;-63
2021/10/21 05:18:39;;;;;;;33.60;23.03;;;;;;;7.07;70.00;101873.81;6116723;23;20217;-63
2021/10/21 05:21:05;;;;;;;36.60;24.53;;;;;;;7.05;69.97;101842.28;6117342;23;20608;-67
2021/10/21 05:23:30;;;;;;;0.30;0.30;;;;;;;7.33;68.88;101881.19;6117905;23;20157;-66
2021/10/21 05:25:56;;;;;;;0.00;0.00;;;;;;;7.31;69.78;101876.03;6119502;23;20158;-63
2021/10/21 05:28:21;;;;;;;33.13;23.27;;;;;;;7.22;69.48;101878.31;6110094;23;20162;-62
2021/10/21 05:30:47;;;;;;;27.97;16.73;;;;;;;7.19;69.64;101870.00;6116526;23;20165;-62
2021/10/21 05:33:12;;;;;;;34.57;23.80;;;;;;;7.23;69.36;101874.38;6101769;23;20581;-62
2021/10/21 05:35:38;;;;;;;38.77;23.77;;;;;;;7.20;68.56;101880.66;6110610;23;20151;-62
2021/10/21 05:38:03;;;;;;;32.93;22.40;;;;;;;7.27;68.53;101869.69;6118359;23;20158;-62
2021/10/21 05:40:29;;;;;;;33.80;22.37;;;;;;;7.29;68.36;101872.84;6110991;23;20616;-62
2021/10/21 05:42:54;;;;;;;37.87;23.73;;;;;;;6.90;68.90;101807.50;6118400;23;20193;-62
2021/10/21 05:45:20;;;;;;;0.00;0.00;;;;;;;7.25;69.37;101863.78;6118197;23;20154;-62
2021/10/21 05:47:46;;;;;;;1.80;0.83;;;;;;;7.47;68.88;101861.97;6118205;23;20217;-62
2021/10/21 05:50:13;;;;;;;0.37;0.37;;;;;;;7.49;68.03;101867.91;6118898;23;20154;-62
2021/10/21 05:52:39;;;;;;;0.00;0.00;;;;;;;7.49;68.61;101868.69;6119227;23;20153;-61
2021/10/21 05:55:05;;;;;;;0.40;0.40;;;;;;;7.51;68.55;101876.59;6118943;23;20593;-61
2021/10/21 05:57:31;;;;;;;0.00;0.00;;;;;;;7.51;68.15;101877.41;6116039;23;20157;-61
2021/10/21 05:59:56;;;;;;;0.50;0.40;;;;;;;7.33;69.07;101886.69;6114618;23;20249;-61
2021/10/21 06:02:22;;;;;;;0.47;0.33;;;;;;;7.07;70.29;101878.56;6118038;23;20186;-61
2021/10/21 06:04:47;;;;;;;0.00;0.00;;;;;;;7.28;69.86;101876.00;6112484;23;20186;-62
2021/10/21 06:07:13;;;;;;;0.63;0.63;;;;;;;7.31;70.10;101886.25;6119168;23;20190;-61
2021/10/21 06:09:40;;;;;;;0.00;0.00;;;;;;;7.36;70.35;101895.00;6116488;23;20505;-62
2021/10/21 06:12:05;;;;;;;0.07;0.07;;;;;;;7.30;70.44;101870.91;6118387;23;20559;-61
2021/10/21 06:14:31;;;;;;;23.07;17.90;;;;;;;7.21;70.67;101840.09;6117419;23;20158;-61
2021/10/21 06:16:58;;;;;;;28.47;19.20;;;;;;;7.49;70.72;101882.50;6118591;23;20212;-61
2021/10/21 06:19:24;;;;;;;27.93;20.33;;;;;;;7.25;70.53;101838.16;6118375;23;20169;-61
2021/10/21 06:21:57;;;;;;;25.70;20.70;;;;;;;7.62;70.76;101883.78;6119286;23;20157;-61
2021/10/21 06:24:23;;;;;;;33.37;23.23;;;;;;;7.60;70.44;101885.34;6116838;23;20162;-61
2021/10/21 06:26:49;;;;;;;29.57;21.93;;;;;;;7.59;71.37;101881.78;6119039;23;20222;-62
2021/10/21 06:29:14;;;;;;;32.20;22.83;;;;;;;7.53;72.52;101857.72;6119102;23;20574;-61
2021/10/21 06:31:40;;;;;;;29.77;22.93;;;;;;;7.42;71.95;101824.53;6118763;23;20203;-61
2021/10/21 06:34:05;;;;;;;28.97;22.37;;;;;;;7.77;72.08;101868.13;6120582;23;20186;-61
2021/10/21 06:36:31;;;;;;;28.27;22.33;;;;;;;7.84;72.61;101882.78;6118237;23;20209;-61
2021/10/21 06:38:56;;;;;;;30.70;23.27;;;;;;;7.67;72.81;101831.03;6120241;23;20246;-61
2021/10/21 06:41:21;;;;;;;31.67;22.67;;;;;;;8.07;72.17;101868.72;6120166;23;20505;-62
2021/10/21 06:43:47;;;;;;;29.70;24.20;;;;;;;8.20;72.42;101872.78;6119890;23;20459;-62
2021/10/21 06:46:12;;;;;;;29.43;23.30;;;;;;;8.10;72.84;101866.00;6119672;23;20150;-62
2021/10/21 06:48:38;;;;;;;34.50;23.90;;;;;;;8.05;73.20;101858.06;6119529;23;20983;-62
2021/10/21 06:51:03;;;;;;;28.70;24.10;;;;;;;8.17;73.26;101865.25;6119971;23;20689;-61
2021/10/21 06:53:29;;;;;;;37.63;26.00;;;;;;;8.02;74.09;101839.53;6118922;23;20161;-62
2021/10/21 06:55:55;;;;;;;31.87;25.43;;;;;;;8.16;75.05;101864.44;6119963;23;20206;-62
2021/10/21 06:58:20;;;;;;;29.83;25.80;;;;;;;8.17;75.21;101868.00;6119499;23;20622;-62
2021/10/21 07:00:46;;;;;;;33.10;26.90;;;;;;;8.27;75.17;101865.34;6119540;23;20440;-62
2021/10/21 07:03:12;;;;;;;32.67;27.50;;;;;;;8.08;75.72;101826.94;6116796;23;20235;-62
2021/10/21 07:05:48;;;;;;;33.43;27.27;;;;;;;8.47;75.31;101872.16;6118085;23;20620;-62
2021/10/21 07:08:14;;;;;;;34.97;26.63;;;;;;;8.60;74.93;101867.84;6119091;23;20135;-62
2021/10/21 07:10:40;;;;;;;30.17;25.10;;;;;;;8.68;74.68;101858.41;6119302;23;20158;-62
2021/10/21 07:13:05;;;;;;;33.47;25.63;;;;;;;8.60;74.45;101809.03;6120401;23;20529;-62
2021/10/21 07:15:32;;;;;;;22.30;18.50;;;;;;;8.81;74.41;101817.41;6119637;23;20156;-62
2021/10/21 07:17:58;;;;;;;32.77;26.23;;;;;;;9.15;73.88;101843.50;6117339;23;20191;-62
2021/10/21 07:20:24;;;;;;;29.73;24.27;;;;;;;9.36;73.69;101855.38;6119641;23;20215;-62
2021/10/21 07:22:49;;;;;;;32.43;25.07;;;;;;;9.44;73.40;101856.94;6118379;23;20155;-62
2021/10/21 07:25:15;;;;;;;30.13;25.60;;;;;;;9.32;73.55;101795.72;6117975;23;20647;-62
2021/10/21 07:27:42;;;;;;;36.37;27.90;;;;;;;9.49;72.32;101825.34;6117951;23;20158;-62
2021/10/21 07:30:08;;;;;;;37.20;27.20;;;;;;;9.86;72.15;101848.66;6118990;23;20157;-62
2021/10/21 07:32:34;;;;;;;32.50;26.93;;;;;;;10.05;72.36;101833.59;6118872;23;20206;-62
2021/10/21 07:35:00;;;;;;;39.47;27.43;;;;;;;10.21;71.64;101840.28;6117087;23;20165;-62
2021/10/21 07:37:26;;;;;;;37.00;28.67;;;;;;;9.98;71.20;101811.41;6118178;23;20196;-63
2021/10/21 07:39:52;;;;;;;37.77;28.50;;;;;;;10.10;71.11;101811.03;6118096;23;20154;-62
2021/10/21 07:42:17;;;;;;;38.77;29.87;;;;;;;10.15;71.01;101819.72;6118861;23;20605;-62
2021/10/21 07:44:49;;;;;;;0.00;0.00;;;;;;;10.27;70.95;101833.16;6117656;23;20155;-62
2021/10/21 07:47:16;;;;;;;26.07;21.27;;;;;;;10.37;70.95;101826.78;6118776;23;20310;-62
2021/10/21 07:49:45;;;;;;;34.10;28.87;;;;;;;10.39;71.17;101818.84;6116542;23;20189;-62
2021/10/21 07:52:13;;;;;;;38.87;29.13;;;;;;;10.51;70.93;101823.16;6119199;23;20202;-62
2021/10/21 07:54:38;;;;;;;38.30;28.83;;;;;;;10.52;70.83;101794.25;6119397;23;20146;-62
2021/10/21 07:57:06;;;;;;;33.37;27.13;;;;;;;10.43;69.90;101772.50;6119328;23;20186;-62
2021/10/21 07:59:35;;;;;;;30.47;27.03;;;;;;;10.75;70.08;101798.06;6117676;23;20181;-62
2021/10/21 08:02:01;;;;;;;30.60;25.17;;;;;;;10.75;69.74;101783.41;6119477;23;20158;-63
2021/10/21 08:04:27;;;;;;;30.67;27.30;;;;;;;10.96;70.01;101811.03;6118959;23;20602;-63
2021/10/21 08:06:53;;;;;;;34.83;28.13;;;;;;;10.98;69.68;101816.94;6119222;23;20155;-62
2021/10/21 08:09:19;;;;;;;38.13;27.97;;;;;;;11.03;69.46;101806.22;6117582;23;20164;-62
2021/10/21 08:11:51;;;;;;;34.73;27.67;;;;;;;11.10;69.34;101788.72;6113584;23;20160;-62
2021/10/21 08:14:17;;;;;;;39.43;28.37;;;;;;;10.72;69.56;101721.22;6118987;23;20156;-62
2021/10/21 08:16:43;;;;;;;32.93;26.63;;;;;;;11.21;69.10;101794.97;6119466;23;20186;-63
2021/10/21 08:19:09;;;;;;;28.10;24.27;;;;;;;11.18;68.43;101787.47;6117971;23;20152;-62
2021/10/21 08:21:35;;;;;;;28.77;24.93;;;;;;;11.23;68.79;101768.38;6118205;23;20165;-62
2021/10/21 08:24:02;;;;;;;27.87;24.70;;;;;;;11.33;68.55;101780.59;6116574;23;20162;-62
2021/10/21 08:26:27;;;;;;;26.70;23.30;;;;;;;11.51;68.50;101772.91;6118914;23;20150;-63
2021/10/21 08:28:53;;;;;;;29.73;23.80;;;;;;;11.28;68.00;101756.06;6116214;23;20169;-62
2021/10/21 08:31:19;;;;;;;29.70;24.57;;;;;;;11.60;67.58;101781.56;6118338;23;20281;-63
2021/10/21 08:33:45;;;;;;;29.43;25.00;;;;;;;11.34;67.48;101746.91;6107984;23;20150;-62
2021/10/21 08:36:14;;;;;;;28.77;25.70;;;;;;;11.71;67.52;101788.59;6117631;23;20558;-63
2021/10/21 08:38:40;;;;;;;30.60;24.93;;;;;;;11.86;66.69;101778.94;6117959;23;20178;-63
2021/10/21 08:41:07;;;;;;;30.13;24.30;;;;;;;11.87;66.74;101783.28;6112585;23;20213;-63
2021/10/21 08:43:34;;;;;;;28.10;24.03;;;;;;;11.91;66.90;101778.47;6116708;23;20326;-63
2021/10/21 08:46:00;;;;;;;31.30;25.03;;;;;;;11.88;66.39;101740.41;6116868;23;20597;-63
2021/10/21 08:48:28;;;;;;;33.47;24.80;;;;;;;12.19;66.02;101771.81;6117814;23;20168;-63
2021/10/21 08:50:57;;;;;;;31.97;26.17;;;;;;;12.38;65.41;101768.38;6115345;23;20550;-63
2021/10/21 08:53:22;;;;;;;33.07;24.77;;;;;;;12.49;65.01;101783.72;6117001;23;20166;-63
2021/10/21 08:55:52;;;;;;;32.93;25.10;;;;;;;12.16;65.53;101723.41;6118181;23;20162;-63
2021/10/21 08:58:18;;;;;;;30.07;23.23;;;;;;;12.47;65.87;101758.31;6117806;23;20159;-65
2021/10/21 09:00:44;;;;;;;30.00;23.57;;;;;;;12.55;65.56;101761.81;6117791;23;20161;-67
2021/10/21 09:03:23;;;;;;;30.27;24.00;;;;;;;12.58;65.66;101758.16;6117111;23;20161;-67
2021/10/21 09:05:56;;;;;;;29.50;23.50;;;;;;;12.64;65.94;101743.38;6118216;23;20229;-67
2021/10/21 09:08:22;;;;;;;29.40;23.17;;;;;;;12.74;65.47;101724.94;6117864;23;20145;-65
2021/10/21 09:10:52;;;;;;;27.77;23.63;;;;;;;12.95;64.82;101738.53;6117629;23;20163;-65
2021/10/21 09:13:23;;;;;;;28.03;23.90;;;;;;;13.15;64.20;101731.88;6118259;23;20162;-66
2021/10/21 09:15:51;;;;;;;28.50;25.17;;;;;;;13.09;64.12;101732.75;6116940;23;20164;-64
2021/10/21 09:18:17;;;;;;;31.93;25.27;;;;;;;13.18;64.26;101728.25;6118635;23;20160;-68
2021/10/21 09:20:44;;;;;;;33.57;25.47;;;;;;;13.29;63.92;101720.50;6118503;23;20413;-63
2021/10/21 09:23:16;;;;;;;32.77;25.43;;;;;;;13.34;64.18;101717.22;6117985;23;20161;-66
2021/10/21 09:25:43;;;;;;;33.17;23.83;;;;;;;13.49;63.73;101714.97;6117465;23;20178;-65
2021/10/21 09:28:23;;;;;;;32.00;24.17;;;;;;;13.72;63.58;101718.50;6118735;23;20520;-64
2021/10/21 09:30:56;;;;;;;34.67;25.00;;;;;;;13.77;63.26;101714.41;6118357;23;20152;-65
2021/10/21 09:33:21;;;;;;;31.10;24.13;;;;;;;13.82;63.07;101698.00;6117972;23;20142;-68
2021/10/21 09:35:59;;;;;;;37.60;25.67;;;;;;;14.03;63.16;101708.69;6118749;23;20190;-66
2021/10/21 09:38:34;;;;;;;35.10;25.07;;;;;;;14.30;62.80;101703.75;6115950;23;20153;-67
2021/10/21 09:41:18;;;;;;;36.33;25.03;;;;;;;14.37;62.01;101691.66;6117992;23;20154;-67
2021/10/21 09:43:44;;;;;;;34.47;25.10;;;;;;;14.56;61.45;101686.03;6110838;23;20165;-68
2021/10/21 09:46:31;;;;;;;28.77;24.47;;;;;;;14.90;61.14;101696.81;6109771;23;20182;-68
2021/10/21 09:49:16;;;;;;;29.00;24.83;;;;;;;15.01;60.21;101689.72;6118256;23;20490;-68
2021/10/21 09:51:43;;;;;;;33.17;24.77;;;;;;;15.23;60.20;101687.97;6118113;23;20762;-68
2021/10/21 09:54:09;;;;;;;27.43;24.43;;;;;;;15.35;60.08;101664.13;6118328;23;20150;-68
2021/10/21 09:56:57;;;;;;;32.17;25.50;;;;;;;15.61;59.34;101666.59;6111568;23;20224;-68
2021/10/21 09:59:35;;;;;;;27.87;24.73;;;;;;;15.67;59.48;101662.03;6117737;23;20225;-68
2021/10/21 10:02:15;;;;;;;31.73;25.87;;;;;;;15.67;58.90;101656.44;6117840;23;20152;-67
2021/10/21 10:04:43;;;;;;;29.20;25.03;;;;;;;15.74;59.17;101656.25;6118133;23;20414;-68
2021/10/21 10:07:11;;;;;;;30.30;25.53;;;;;;;16.00;58.75;101657.88;6118518;23;20487;-68
2021/10/21 10:09:37;;;;;;;27.10;24.17;;;;;;;16.09;58.26;101637.66;6119716;23;20609;-68
2021/10/21 10:12:04;;;;;;;26.80;23.97;;;;;;;16.30;57.99;101643.34;6119997;23;20209;-68
2021/10/21 10:14:30;;;;;;;25.90;23.20;;;;;;;16.34;57.48;101643.25;6119799;23;20605;-68
2021/10/21 10:17:01;;;;;;;26.73;23.93;;;;;;;16.45;57.47;101630.50;6120236;23;20209;-68
2021/10/21 10:19:28;;;;;;;27.23;24.37;;;;;;;16.68;57.05;101621.78;6119340;23;20216;-68
2021/10/21 10:21:56;;;;;;;31.03;25.53;;;;;;;16.60;55.95;101588.88;6118498;23;20158;-68
2021/10/21 10:24:32;;;;;;;27.60;24.70;;;;;;;16.58;56.67;101588.53;6119593;23;20593;-69
2021/10/21 10:27:00;;;;;;;29.13;25.70;;;;;;;16.53;56.35;101615.06;6119932;23;20237;-68
2021/10/21 10:29:31;;;;;;;28.87;24.80;;;;;;;16.81;56.80;101616.16;6117903;23;20190;-69
2021/10/21 10:32:00;;;;;;;27.77;24.77;;;;;;;16.95;56.14;101612.88;6120220;23;20746;-67
2021/10/21 10:34:34;;;;;;;28.23;25.17;;;;;;;16.86;56.43;101610.75;6119448;23;20609;-68
2021/10/21 10:37:21;;;;;;;26.97;24.07;;;;;;;17.01;56.08;101589.44;6119942;23;20240;-68
2021/10/21 10:39:52;;;;;;;25.50;22.77;;;;;;;17.19;55.74;101584.00;6118551;23;20412;-68
2021/10/21 10:42:32;;;;;;;25.23;22.63;;;;;;;17.25;55.09;101589.78;6120630;23;20298;-67
2021/10/21 10:45:02;;;;;;;26.53;22.10;;;;;;;17.16;56.23;101584.13;6119866;23;20376;-67
2021/10/21 10:47:42;;;;;;;24.77;21.93;;;;;;;17.44;55.99;101576.75;6118644;23;20158;-64
2021/10/21 10:50:21;;;;;;;25.40;21.87;;;;;;;17.56;54.49;101554.22;6118554;23;20202;-68
2021/10/21 10:52:51;;;;;;;23.80;20.77;;;;;;;17.77;54.76;101566.66;6119157;23;20146;-68
2021/10/21 10:55:27;;;;;;;25.17;21.40;;;;;;;17.57;54.44;101546.63;6117757;23;20157;-67
2021/10/21 10:57:54;;;;;;;23.03;20.63;;;;;;;17.82;53.92;101555.66;6117705;23;20600;-67
2021/10/21 11:00:49;;;;;;;24.10;21.63;;;;;;;17.85;53.53;101551.91;6119049;23;20467;-67
2021/10/21 11:03:28;;;;;;;24.10;20.77;;;;;;;17.98;53.39;101547.00;6119524;23;20662;-67
2021/10/21 11:05:55;;;;;;;23.10;20.03;;;;;;;18.02;53.21;101549.66;6119580;23;20157;-67
2021/10/21 11:08:40;;;;;;;23.00;19.00;;;;;;;18.19;53.16;101532.88;6116021;23;20696;-67
2021/10/21 11:11:06;;;;;;;15.27;13.73;;;;;;;18.02;52.86;101506.34;6119994;23;20169;-66
2021/10/21 11:13:34;;;;;;;22.07;19.77;;;;;;;18.32;53.11;101529.97;6119995;23;20602;-68
2021/10/21 11:16:00;;;;;;;20.20;18.03;;;;;;;18.35;51.98;101539.50;6109725;23;20157;-69